createdAt,value
2023-03-07T00:00:05.394Z,-3.06
2023-03-07T00:02:32.469Z,-3.05
2023-03-07T00:04:59.596Z,-3.03
2023-03-07T00:07:26.831Z,-3.06
2023-03-07T00:09:53.998Z,-3.02
2023-03-07T00:12:22.478Z,-3.02
2023-03-07T00:14:49.510Z,-3.00
2023-03-07T00:17:16.762Z,-3.03
2023-03-07T00:19:43.967Z,-3.02
2023-03-07T00:22:14.462Z,-2.99
2023-03-07T00:24:41.759Z,-3.02
2023-03-07T00:27:09.199Z,-3.00
2023-03-07T00:29:36.289Z,-2.98
2023-03-07T00:32:03.610Z,-2.92
2023-03-07T00:34:30.744Z,-2.92
2023-03-07T00:36:57.813Z,-2.92
2023-03-07T00:39:25.033Z,-2.97
2023-03-07T00:41:52.124Z,-2.99
2023-03-07T00:44:19.281Z,-2.95
2023-03-07T00:46:46.678Z,-2.97
2023-03-07T00:49:13.918Z,-3.02
2023-03-07T00:51:41.042Z,-3.04
2023-03-07T00:54:08.203Z,-2.96
2023-03-07T00:56:36.308Z,-2.95
2023-03-07T00:59:04.001Z,-2.94
2023-03-07T01:01:31.181Z,-2.94
2023-03-07T01:03:58.460Z,-2.94
2023-03-07T01:06:28.717Z,-2.94
2023-03-07T01:08:58.520Z,-2.95
2023-03-07T01:11:26.249Z,-2.99
2023-03-07T01:13:59.281Z,-2.99
2023-03-07T01:16:35.169Z,-3.03
2023-03-07T01:19:05.646Z,-3.08
2023-03-07T01:21:38.768Z,-3.10
2023-03-07T01:24:07.385Z,-3.16
2023-03-07T01:26:35.358Z,-3.20
2023-03-07T01:29:05.074Z,-3.23
2023-03-07T01:31:35.301Z,-3.20
2023-03-07T01:34:03.218Z,-3.24
2023-03-07T01:36:34.794Z,-3.25
2023-03-07T01:39:14.675Z,-3.31
2023-03-07T01:42:02.289Z,-3.31
2023-03-07T01:44:30.233Z,-3.38
2023-03-07T01:47:00.249Z,-3.37
2023-03-07T01:49:39.059Z,-3.39
2023-03-07T01:52:14.076Z,-3.42
2023-03-07T01:54:50.553Z,-3.44
2023-03-07T01:57:23.843Z,-3.49
2023-03-07T01:59:54.476Z,-3.52
2023-03-07T02:02:23.090Z,-3.56
2023-03-07T02:05:01.151Z,-3.58
2023-03-07T02:07:33.621Z,-3.62
2023-03-07T02:10:01.966Z,-3.71
2023-03-07T02:12:29.446Z,-3.71
2023-03-07T02:14:56.676Z,-3.99
2023-03-07T02:17:25.030Z,-3.72
2023-03-07T02:20:07.228Z,-3.73
2023-03-07T02:22:34.441Z,-3.77
2023-03-07T02:25:09.065Z,-3.82
2023-03-07T02:27:38.079Z,-3.87
2023-03-07T02:30:07.972Z,-3.93
2023-03-07T02:32:35.235Z,-3.98
2023-03-07T02:35:02.391Z,-4.03
2023-03-07T02:37:34.848Z,-4.07
2023-03-07T02:40:07.278Z,-4.08
2023-03-07T02:42:38.191Z,-4.13
2023-03-07T02:45:13.000Z,-4.16
2023-03-07T02:47:43.436Z,-4.17
2023-03-07T02:50:14.390Z,-4.18
2023-03-07T02:52:44.113Z,-4.20
2023-03-07T02:55:12.012Z,-4.25
2023-03-07T02:57:44.829Z,-4.23
2023-03-07T03:00:15.352Z,-4.25
2023-03-07T03:02:42.480Z,-4.25
2023-03-07T03:05:09.656Z,-4.30
2023-03-07T03:07:36.742Z,-4.25
2023-03-07T03:10:04.473Z,-4.25
2023-03-07T03:12:32.883Z,-4.28
2023-03-07T03:15:00.303Z,-4.30
2023-03-07T03:17:27.394Z,-4.40
2023-03-07T03:19:54.729Z,-4.41
2023-03-07T03:22:21.985Z,-4.42
2023-03-07T03:24:51.119Z,-4.46
2023-03-07T03:27:19.665Z,-4.55
2023-03-07T03:29:49.520Z,-4.58
2023-03-07T03:32:17.031Z,-4.67
2023-03-07T03:34:45.339Z,-4.75
2023-03-07T03:37:12.731Z,-4.79
2023-03-07T03:39:39.963Z,-4.87
2023-03-07T03:42:07.366Z,-4.94
2023-03-07T03:44:34.528Z,-5.00
2023-03-07T03:47:02.479Z,-5.05
2023-03-07T03:49:29.725Z,-5.06
2023-03-07T03:51:56.751Z,-5.10
2023-03-07T03:54:24.722Z,-5.14
2023-03-07T03:56:55.124Z,-5.12
2023-03-07T03:59:22.617Z,-5.09
2023-03-07T04:01:50.948Z,-5.09
2023-03-07T04:04:19.284Z,-5.05
2023-03-07T04:06:46.447Z,-5.01
2023-03-07T04:09:13.584Z,-4.96
2023-03-07T04:11:43.441Z,-4.93
2023-03-07T04:14:10.990Z,-4.97
2023-03-07T04:16:38.119Z,-4.95
2023-03-07T04:19:05.330Z,-4.88
2023-03-07T04:21:32.479Z,-4.83
2023-03-07T04:24:00.422Z,-4.77
2023-03-07T04:26:30.243Z,-4.72
2023-03-07T04:28:57.453Z,-4.66
2023-03-07T04:31:34.010Z,-4.62
2023-03-07T04:34:03.469Z,-4.50
2023-03-07T04:36:31.175Z,-4.40
2023-03-07T04:38:58.278Z,-4.33
2023-03-07T04:41:29.368Z,-4.24
2023-03-07T04:44:17.531Z,-4.15
2023-03-07T04:46:44.635Z,-4.06
2023-03-07T04:49:12.002Z,-3.96
2023-03-07T04:51:43.010Z,-3.88
2023-03-07T04:54:11.881Z,-3.83
2023-03-07T04:56:39.452Z,-3.75
2023-03-07T04:59:09.057Z,-3.65
2023-03-07T05:01:36.171Z,-3.64
2023-03-07T05:04:04.109Z,-3.52
2023-03-07T05:06:31.405Z,-3.44
2023-03-07T05:08:58.876Z,-3.39
2023-03-07T05:11:26.276Z,-3.29
2023-03-07T05:13:53.993Z,-3.25
2023-03-07T05:16:22.837Z,-3.21
2023-03-07T05:18:50.318Z,-3.36
2023-03-07T05:21:17.943Z,-3.08
2023-03-07T05:23:45.290Z,-3.02
2023-03-07T05:26:13.405Z,-2.98
2023-03-07T05:28:41.272Z,-2.92
2023-03-07T05:31:08.607Z,-2.93
2023-03-07T05:33:35.739Z,-2.84
2023-03-07T05:36:03.974Z,-2.82
2023-03-07T05:38:32.600Z,-2.77
2023-03-07T05:40:59.959Z,-2.72
2023-03-07T05:43:27.709Z,-2.65
2023-03-07T05:45:55.018Z,-2.61
2023-03-07T05:48:22.142Z,-2.60
2023-03-07T05:50:49.344Z,-2.59
2023-03-07T05:53:18.084Z,-2.57
2023-03-07T05:55:46.131Z,-2.55
2023-03-07T05:58:15.089Z,-2.52
2023-03-07T06:00:44.357Z,-2.51
2023-03-07T06:03:11.496Z,-2.46
2023-03-07T06:05:39.396Z,-2.48
2023-03-07T06:08:07.373Z,-2.45
2023-03-07T06:10:35.145Z,-2.34
2023-03-07T06:13:03.875Z,-2.35
2023-03-07T06:15:31.371Z,-2.31
2023-03-07T06:18:03.567Z,-2.31
2023-03-07T06:20:30.750Z,-2.32
2023-03-07T06:22:57.928Z,-2.24
2023-03-07T06:25:25.082Z,-2.48
2023-03-07T06:27:52.512Z,-2.19
2023-03-07T06:30:19.751Z,-2.24
2023-03-07T06:32:46.889Z,-2.16
2023-03-07T06:35:14.035Z,-2.20
2023-03-07T06:37:41.342Z,-2.16
2023-03-07T06:40:10.933Z,-2.16
2023-03-07T06:42:39.825Z,-2.13
2023-03-07T06:45:08.891Z,-2.15
2023-03-07T06:47:35.978Z,-2.10
2023-03-07T06:50:04.710Z,-2.08
2023-03-07T06:52:33.578Z,-2.07
2023-03-07T06:55:01.491Z,-1.97
2023-03-07T06:57:30.078Z,-1.94
2023-03-07T06:59:57.305Z,-1.86
2023-03-07T07:02:24.852Z,-1.81
2023-03-07T07:04:52.213Z,-1.79
2023-03-07T07:07:19.534Z,-1.70
2023-03-07T07:09:46.800Z,-1.64
2023-03-07T07:12:13.886Z,-1.68
2023-03-07T07:14:40.991Z,-1.63
2023-03-07T07:17:08.501Z,-1.60
2023-03-07T07:19:35.611Z,-1.54
2023-03-07T07:22:03.174Z,-1.50
2023-03-07T07:24:30.684Z,-1.42
2023-03-07T07:26:58.445Z,-1.32
2023-03-07T07:29:26.308Z,-1.26
2023-03-07T07:31:54.362Z,-1.24
2023-03-07T07:34:21.724Z,-1.28
2023-03-07T07:36:48.879Z,-1.22
2023-03-07T07:39:17.435Z,-1.21
2023-03-07T07:41:46.372Z,-1.16
2023-03-07T07:44:14.921Z,-1.24
2023-03-07T07:46:53.845Z,-0.97
2023-03-07T07:49:21.424Z,-0.94
2023-03-07T07:51:48.640Z,-0.83
2023-03-07T07:54:15.813Z,-0.77
2023-03-07T07:56:43.154Z,-0.70
2023-03-07T07:59:10.812Z,-0.57
2023-03-07T08:01:38.192Z,-0.51
2023-03-07T08:04:05.692Z,-0.45
2023-03-07T08:06:32.820Z,-0.40
2023-03-07T08:09:00.529Z,-0.43
2023-03-07T08:11:27.843Z,-0.34
2023-03-07T08:13:55.325Z,-0.34
2023-03-07T08:16:23.570Z,-0.28
2023-03-07T08:18:58.405Z,-0.16
2023-03-07T08:21:26.260Z,-0.01
2023-03-07T08:23:55.510Z,0.07
2023-03-07T08:26:23.121Z,0.10
2023-03-07T08:28:52.461Z,0.18
2023-03-07T08:31:23.765Z,0.29
2023-03-07T08:33:52.030Z,0.40
2023-03-07T08:36:19.483Z,0.50
2023-03-07T08:38:51.996Z,0.52
2023-03-07T08:41:20.901Z,0.55
2023-03-07T08:43:48.723Z,0.53
2023-03-07T08:46:16.353Z,0.57
2023-03-07T08:48:43.776Z,0.59
2023-03-07T08:51:15.211Z,0.61
2023-03-07T08:53:43.377Z,0.75
2023-03-07T08:56:13.404Z,0.78
2023-03-07T08:58:41.694Z,0.91
2023-03-07T09:01:09.246Z,0.95
2023-03-07T09:03:37.638Z,0.96
2023-03-07T09:06:05.948Z,0.93
2023-03-07T09:08:33.548Z,0.85
2023-03-07T09:11:03.765Z,0.82
2023-03-07T09:13:33.070Z,0.91
2023-03-07T09:16:05.166Z,0.98
2023-03-07T09:18:32.644Z,1.03
2023-03-07T09:21:06.762Z,1.06
2023-03-07T09:23:34.523Z,1.06
2023-03-07T09:26:02.331Z,1.12
2023-03-07T09:28:29.495Z,1.23
2023-03-07T09:30:56.720Z,1.29
2023-03-07T09:33:24.322Z,1.39
2023-03-07T09:35:51.683Z,1.42
2023-03-07T09:38:19.037Z,1.51
2023-03-07T09:40:48.107Z,1.52
2023-03-07T09:43:33.838Z,1.63
2023-03-07T09:46:32.718Z,1.72
2023-03-07T09:49:08.842Z,1.74
2023-03-07T09:51:44.319Z,1.78
2023-03-07T09:54:17.452Z,1.83
2023-03-07T09:56:57.887Z,1.86
2023-03-07T09:59:38.647Z,1.86
2023-03-07T10:02:18.868Z,1.92
2023-03-07T10:04:48.479Z,1.96
2023-03-07T10:07:16.856Z,2.00
2023-03-07T10:09:45.836Z,1.95
2023-03-07T10:12:34.843Z,1.90
2023-03-07T10:15:03.839Z,1.94
2023-03-07T10:18:06.783Z,1.93
2023-03-07T10:20:45.924Z,1.91
2023-03-07T10:23:29.295Z,1.91
2023-03-07T10:26:11.685Z,1.84
2023-03-07T10:28:42.692Z,1.85
2023-03-07T10:31:17.920Z,1.81
2023-03-07T10:33:49.766Z,1.76
2023-03-07T10:36:22.364Z,1.69
2023-03-07T10:39:21.362Z,1.65
2023-03-07T10:41:49.365Z,1.60
2023-03-07T10:44:20.923Z,1.53
2023-03-07T10:46:56.378Z,1.49
2023-03-07T10:49:38.155Z,1.52
2023-03-07T10:52:47.278Z,1.47
2023-03-07T10:55:43.305Z,1.49
2023-03-07T10:58:16.434Z,1.51
2023-03-07T11:00:44.809Z,1.49
2023-03-07T11:03:29.371Z,1.53
2023-03-07T11:05:56.429Z,1.54
2023-03-07T11:08:28.555Z,1.54
2023-03-07T11:10:55.971Z,1.55
2023-03-07T11:13:24.693Z,1.63
2023-03-07T11:16:00.221Z,1.66
2023-03-07T11:18:42.447Z,1.68
2023-03-07T11:21:29.920Z,1.69
2023-03-07T11:24:03.459Z,1.68
2023-03-07T11:26:39.206Z,1.64
2023-03-07T11:29:14.531Z,1.63
2023-03-07T11:31:56.961Z,1.62
2023-03-07T11:34:51.896Z,1.67
2023-03-07T11:37:39.585Z,1.66
2023-03-07T11:40:28.020Z,1.68
2023-03-07T11:43:15.871Z,1.66
2023-03-07T11:45:46.012Z,1.64
2023-03-07T11:48:21.429Z,1.62
2023-03-07T11:50:55.881Z,1.56
2023-03-07T11:53:47.802Z,1.59
2023-03-07T11:56:35.196Z,1.57
2023-03-07T11:59:21.030Z,1.58
2023-03-07T12:01:57.374Z,1.58
2023-03-07T12:04:46.088Z,1.56
2023-03-07T12:07:45.283Z,1.57
2023-03-07T12:10:33.606Z,1.58
2023-03-07T12:13:24.772Z,1.59
2023-03-07T12:16:06.840Z,1.63
2023-03-07T12:19:10.602Z,1.65
2023-03-07T12:21:40.808Z,1.70
2023-03-07T12:24:13.708Z,1.74
2023-03-07T12:27:02.887Z,1.79
2023-03-07T12:29:41.761Z,1.85
2023-03-07T12:32:21.862Z,1.85
2023-03-07T12:34:55.205Z,1.90
2023-03-07T12:37:31.048Z,1.93
2023-03-07T12:40:37.160Z,1.95
2023-03-07T12:43:19.648Z,2.01
2023-03-07T12:46:24.828Z,2.01
2023-03-07T12:49:02.482Z,2.05
2023-03-07T12:51:52.348Z,2.04
2023-03-07T12:54:39.940Z,2.03
2023-03-07T12:57:19.337Z,2.01
2023-03-07T12:59:46.556Z,2.01
2023-03-07T13:02:54.323Z,2.04
2023-03-07T13:05:22.405Z,2.06
2023-03-07T13:07:50.440Z,2.07
2023-03-07T13:10:23.566Z,2.08
2023-03-07T13:12:52.326Z,2.11
2023-03-07T13:15:19.501Z,2.14
2023-03-07T13:17:46.705Z,2.16
2023-03-07T13:20:19.316Z,2.17
2023-03-07T13:22:46.526Z,2.18
2023-03-07T13:25:23.345Z,2.19
2023-03-07T13:27:58.252Z,2.19
2023-03-07T13:30:33.388Z,2.18
2023-03-07T13:33:02.948Z,2.14
2023-03-07T13:35:36.070Z,2.18
2023-03-07T13:38:24.822Z,2.18
2023-03-07T13:40:55.830Z,2.18
2023-03-07T13:43:24.165Z,2.17
2023-03-07T13:46:00.923Z,2.18
2023-03-07T13:48:31.040Z,2.21
2023-03-07T13:51:01.279Z,2.22
2023-03-07T13:53:28.368Z,2.20
2023-03-07T13:56:02.351Z,2.22
2023-03-07T13:58:35.533Z,2.20
2023-03-07T14:01:14.988Z,2.26
2023-03-07T14:03:53.258Z,2.26
2023-03-07T14:06:28.318Z,2.29
2023-03-07T14:08:55.831Z,2.25
2023-03-07T14:11:32.892Z,2.29
2023-03-07T14:14:21.973Z,2.29
2023-03-07T14:17:33.739Z,2.29
2023-03-07T14:20:24.043Z,2.29
2023-03-07T14:22:59.125Z,2.25
2023-03-07T14:25:35.142Z,2.22
2023-03-07T14:28:18.167Z,2.24
2023-03-07T14:30:59.178Z,2.22
2023-03-07T14:33:37.694Z,2.22
2023-03-07T14:36:19.882Z,2.17
2023-03-07T14:38:48.791Z,2.20
2023-03-07T14:41:26.035Z,2.18
2023-03-07T14:44:06.168Z,2.17
2023-03-07T14:47:18.074Z,2.16
2023-03-07T14:49:45.256Z,2.14
2023-03-07T14:52:28.365Z,2.08
2023-03-07T14:55:02.181Z,1.93
2023-03-07T14:57:37.006Z,2.08
2023-03-07T15:00:14.170Z,2.05
2023-03-07T15:02:53.433Z,2.07
2023-03-07T15:05:30.026Z,2.02
2023-03-07T15:07:58.048Z,2.04
2023-03-07T15:10:29.695Z,2.05
2023-03-07T15:12:58.180Z,2.05
2023-03-07T15:15:34.612Z,2.04
2023-03-07T15:18:14.856Z,2.01
2023-03-07T15:20:44.072Z,1.98
2023-03-07T15:23:21.973Z,1.96
2023-03-07T15:25:49.760Z,1.92
2023-03-07T15:28:37.624Z,1.96
2023-03-07T15:31:05.204Z,1.96
2023-03-07T15:33:33.535Z,1.94
2023-03-07T15:36:08.436Z,1.98
2023-03-07T15:38:35.842Z,1.94
2023-03-07T15:41:23.123Z,1.95
2023-03-07T15:44:04.263Z,1.97
2023-03-07T15:46:33.118Z,1.96
2023-03-07T15:49:00.454Z,1.96
2023-03-07T15:51:36.318Z,1.98
2023-03-07T15:54:31.324Z,1.96
2023-03-07T15:57:04.502Z,1.91
2023-03-07T15:59:36.559Z,1.96
2023-03-07T16:02:32.658Z,1.97
2023-03-07T16:05:02.058Z,1.98
2023-03-07T16:07:29.359Z,2.00
2023-03-07T16:09:56.550Z,1.99
2023-03-07T16:12:25.561Z,2.02
2023-03-07T16:14:54.964Z,2.01
2023-03-07T16:17:30.189Z,2.00
2023-03-07T16:19:57.654Z,2.00
2023-03-07T16:22:24.815Z,2.03
2023-03-07T16:24:52.180Z,2.03
2023-03-07T16:27:22.403Z,2.03
2023-03-07T16:29:49.456Z,2.01
2023-03-07T16:32:18.942Z,2.04
2023-03-07T16:34:46.225Z,2.05
2023-03-07T16:37:13.705Z,2.04
2023-03-07T16:39:41.378Z,2.06
2023-03-07T16:42:21.759Z,2.04
2023-03-07T16:44:49.777Z,2.09
2023-03-07T16:47:18.861Z,2.10
2023-03-07T16:49:49.272Z,2.05
2023-03-07T16:52:16.407Z,2.09
2023-03-07T16:54:43.580Z,2.11
2023-03-07T16:57:15.347Z,2.09
2023-03-07T16:59:47.359Z,2.09
2023-03-07T17:02:19.812Z,2.14
2023-03-07T17:04:47.563Z,2.17
2023-03-07T17:07:19.764Z,2.17
2023-03-07T17:09:47.026Z,2.19
2023-03-07T17:12:14.866Z,2.21
2023-03-07T17:14:43.032Z,2.19
2023-03-07T17:17:19.221Z,2.17
2023-03-07T17:19:46.351Z,2.06
2023-03-07T17:22:13.674Z,1.88
2023-03-07T17:24:40.876Z,1.67
2023-03-07T17:27:09.008Z,1.58
2023-03-07T17:29:43.840Z,1.48
2023-03-07T17:32:11.489Z,1.37
2023-03-07T17:34:39.542Z,1.32
2023-03-07T17:37:07.095Z,1.28
2023-03-07T17:39:35.067Z,1.26
2023-03-07T17:42:03.217Z,1.17
2023-03-07T17:44:30.399Z,1.17
2023-03-07T17:46:57.835Z,1.11
2023-03-07T17:49:28.503Z,1.03
2023-03-07T17:51:55.710Z,0.95
2023-03-07T17:54:22.941Z,0.94
2023-03-07T17:56:50.240Z,0.91
2023-03-07T17:59:17.374Z,0.87
2023-03-07T18:01:44.817Z,0.82
2023-03-07T18:04:12.492Z,0.81
2023-03-07T18:06:40.997Z,0.82
2023-03-07T18:09:09.533Z,0.82
2023-03-07T18:11:37.112Z,0.81
2023-03-07T18:14:04.204Z,0.81
2023-03-07T18:16:31.792Z,0.82
2023-03-07T18:19:01.761Z,0.79
2023-03-07T18:21:30.619Z,0.83
2023-03-07T18:23:58.260Z,0.82
2023-03-07T18:26:25.487Z,0.79
2023-03-07T18:28:54.007Z,0.79
2023-03-07T18:31:25.366Z,0.80
2023-03-07T18:33:53.532Z,0.85
2023-03-07T18:36:23.121Z,0.83
2023-03-07T18:38:50.582Z,0.85
2023-03-07T18:41:20.761Z,0.81
2023-03-07T18:43:47.843Z,0.76
2023-03-07T18:46:18.691Z,0.76
2023-03-07T18:48:46.098Z,0.72
2023-03-07T18:51:25.286Z,0.73
2023-03-07T18:53:58.585Z,0.73
2023-03-07T18:56:27.180Z,0.74
2023-03-07T18:58:56.281Z,0.73
2023-03-07T19:01:27.442Z,0.69
2023-03-07T19:03:56.117Z,0.68
2023-03-07T19:06:25.922Z,0.75
2023-03-07T19:08:53.327Z,0.73
2023-03-07T19:11:20.881Z,0.74
2023-03-07T19:13:50.757Z,0.72
2023-03-07T19:16:20.909Z,0.73
2023-03-07T19:18:47.957Z,0.72
2023-03-07T19:21:23.247Z,0.68
2023-03-07T19:23:52.011Z,0.70
2023-03-07T19:26:20.220Z,0.68
2023-03-07T19:28:50.091Z,0.72
2023-03-07T19:31:20.504Z,0.74
2023-03-07T19:33:50.113Z,0.67
2023-03-07T19:36:27.170Z,0.73
2023-03-07T19:38:57.318Z,0.73
2023-03-07T19:41:26.520Z,0.73
2023-03-07T19:43:55.961Z,0.71
2023-03-07T19:46:23.649Z,0.69
2023-03-07T19:48:50.769Z,0.72
2023-03-07T19:51:23.245Z,0.71
2023-03-07T19:53:51.282Z,0.75
2023-03-07T19:56:24.665Z,0.74
2023-03-07T19:58:51.937Z,0.74
2023-03-07T20:01:20.115Z,0.74
2023-03-07T20:03:48.327Z,0.75
2023-03-07T20:06:27.003Z,0.74
2023-03-07T20:08:55.284Z,0.73
2023-03-07T20:11:27.148Z,0.73
2023-03-07T20:13:56.933Z,0.72
2023-03-07T20:16:25.010Z,0.70
2023-03-07T20:18:53.770Z,0.72
2023-03-07T20:21:26.278Z,0.70
2023-03-07T20:23:55.969Z,0.71
2023-03-07T20:26:28.755Z,0.74
2023-03-07T20:28:57.059Z,0.71
2023-03-07T20:31:24.505Z,0.67
2023-03-07T20:33:51.820Z,0.73
2023-03-07T20:36:25.048Z,0.70
2023-03-07T20:38:57.461Z,0.72
2023-03-07T20:41:26.640Z,0.72
2023-03-07T20:43:57.124Z,0.68
2023-03-07T20:46:24.299Z,0.72
2023-03-07T20:48:54.826Z,0.67
2023-03-07T20:51:24.199Z,0.71
2023-03-07T20:53:54.664Z,0.69
2023-03-07T20:56:22.912Z,0.70
2023-03-07T20:58:50.426Z,0.65
2023-03-07T21:01:19.306Z,0.68
2023-03-07T21:03:48.298Z,0.69
2023-03-07T21:06:16.356Z,0.68
2023-03-07T21:08:44.124Z,0.68
2023-03-07T21:11:13.789Z,0.68
2023-03-07T21:13:42.847Z,0.69
2023-03-07T21:16:13.166Z,0.67
2023-03-07T21:18:40.529Z,0.65
2023-03-07T21:21:13.720Z,0.66
2023-03-07T21:23:41.367Z,0.66
2023-03-07T21:26:10.039Z,0.66
2023-03-07T21:28:37.832Z,0.64
2023-03-07T21:31:22.566Z,0.65
2023-03-07T21:33:53.935Z,0.65
2023-03-07T21:36:21.481Z,0.62
2023-03-07T21:38:49.077Z,0.65
2023-03-07T21:41:18.963Z,0.61
2023-03-07T21:43:46.234Z,0.64
2023-03-07T21:46:14.171Z,0.65
2023-03-07T21:48:42.325Z,0.66
2023-03-07T21:51:10.044Z,0.61
2023-03-07T21:53:37.770Z,0.66
2023-03-07T21:56:10.368Z,0.67
2023-03-07T21:58:38.421Z,0.66
2023-03-07T22:01:22.307Z,0.68
2023-03-07T22:03:55.701Z,0.67
2023-03-07T22:06:23.841Z,0.66
2023-03-07T22:08:51.354Z,0.67
2023-03-07T22:11:18.496Z,0.67
2023-03-07T22:13:45.515Z,0.66
2023-03-07T22:16:15.682Z,0.66
2023-03-07T22:18:42.780Z,0.62
2023-03-07T22:21:13.697Z,0.64
2023-03-07T22:23:41.383Z,0.65
2023-03-07T22:26:10.578Z,0.66
2023-03-07T22:28:38.105Z,0.65
2023-03-07T22:31:07.690Z,0.65
2023-03-07T22:33:35.407Z,0.65
2023-03-07T22:36:04.858Z,0.63
2023-03-07T22:38:32.393Z,0.64
2023-03-07T22:41:03.634Z,0.65
2023-03-07T22:43:32.078Z,0.64
2023-03-07T22:45:59.476Z,0.64
2023-03-07T22:48:27.013Z,0.66
2023-03-07T22:50:54.393Z,0.65
2023-03-07T22:53:21.789Z,0.64
2023-03-07T22:55:48.906Z,0.64
2023-03-07T22:58:16.739Z,0.63
2023-03-07T23:00:45.286Z,0.61
2023-03-07T23:03:12.511Z,0.65
2023-03-07T23:05:39.643Z,0.68
2023-03-07T23:08:07.108Z,0.67
2023-03-07T23:10:34.294Z,0.68
2023-03-07T23:13:01.547Z,0.68
2023-03-07T23:15:29.232Z,0.69
2023-03-07T23:17:56.693Z,0.67
2023-03-07T23:20:26.460Z,0.66
2023-03-07T23:22:53.843Z,0.65
2023-03-07T23:25:21.626Z,0.64
2023-03-07T23:27:48.762Z,0.65
2023-03-07T23:30:18.008Z,0.65
2023-03-07T23:32:45.182Z,0.60
2023-03-07T23:35:12.678Z,0.64
2023-03-07T23:37:41.971Z,0.63
2023-03-07T23:40:12.256Z,0.63
2023-03-07T23:42:39.229Z,0.62
2023-03-07T23:45:06.791Z,0.62
2023-03-07T23:47:34.588Z,0.60
2023-03-07T23:50:01.619Z,0.61
2023-03-07T23:52:28.708Z,0.67
2023-03-07T23:54:55.915Z,0.65
2023-03-07T23:57:23.018Z,0.63
2023-03-07T23:59:50.073Z,0.65
